Retsil, Washington
Current Conditions -  °F | °C
As of 9:15 AM on Saturday 20 Dec 2014 (Local Time) from KPWT Reporting Station
Broken Clouds Broken Clouds  
Wind Chill:   Ceiling: 1100
Heat Index:   Visibility: 1.5mi
Dew Point:   Wind: 3mph
Humidity: 100%   Direction: 40°NE
Pressure: 29.63"   Gusts: NA
Location:  47.53°N, 122.59°W
Report Text: KPWT 201715Z AUTO 04003KT 1 1/2SM BKN011 06/06 A2963 RMK AO1 P0002
Loading
Personal Weather Stations






























Interactive Weather Map New forecast layout! Learn more

10-Day Weather Forecast

Advertisements
Track Severe Weather on mobile